sensor_id;sensor_type;location;lat;lon;timestamp;P1;durP1;ratioP1;P2;durP2;ratioP2
39846;SDS011;25517;52.422;10.782;2022-07-04T00:00:05;4.80;;;2.30;;
39846;SDS011;25517;52.422;10.782;2022-07-04T00:02:32;2.00;;;1.90;;
39846;SDS011;25517;52.422;10.782;2022-07-04T00:04:58;4.35;;;2.25;;
39846;SDS011;25517;52.422;10.782;2022-07-04T00:07:23;4.75;;;2.35;;
39846;SDS011;25517;52.422;10.782;2022-07-04T00:09:49;2.30;;;2.10;;
39846;SDS011;25517;52.422;10.782;2022-07-04T00:12:15;3.28;;;2.50;;
39846;SDS011;25517;52.422;10.782;2022-07-04T00:14:40;2.80;;;2.40;;
39846;SDS011;25517;52.422;10.782;2022-07-04T00:17:06;3.65;;;2.20;;
39846;SDS011;25517;52.422;10.782;2022-07-04T00:19:31;4.53;;;2.58;;
39846;SDS011;25517;52.422;10.782;2022-07-04T00:21:57;2.78;;;2.17;;
39846;SDS011;25517;52.422;10.782;2022-07-04T00:24:22;3.88;;;2.25;;
39846;SDS011;25517;52.422;10.782;2022-07-04T00:26:48;3.08;;;2.20;;
39846;SDS011;25517;52.422;10.782;2022-07-04T00:29:13;2.75;;;2.30;;
39846;SDS011;25517;52.422;10.782;2022-07-04T00:31:39;2.35;;;2.05;;
39846;SDS011;25517;52.422;10.782;2022-07-04T00:34:05;2.30;;;2.10;;
39846;SDS011;25517;52.422;10.782;2022-07-04T00:36:31;3.25;;;2.17;;
39846;SDS011;25517;52.422;10.782;2022-07-04T00:38:57;2.47;;;2.22;;
39846;SDS011;25517;52.422;10.782;2022-07-04T00:41:22;2.83;;;2.13;;
39846;SDS011;25517;52.422;10.782;2022-07-04T00:44:04;4.65;;;2.40;;
39846;SDS011;25517;52.422;10.782;2022-07-04T00:46:32;6.43;;;2.40;;
39846;SDS011;25517;52.422;10.782;2022-07-04T00:48:57;4.30;;;2.38;;
39846;SDS011;25517;52.422;10.782;2022-07-04T00:51:23;7.18;;;2.42;;
39846;SDS011;25517;52.422;10.782;2022-07-04T00:53:50;2.50;;;2.30;;
39846;SDS011;25517;52.422;10.782;2022-07-04T00:56:18;2.65;;;2.33;;
39846;SDS011;25517;52.422;10.782;2022-07-04T00:58:44;2.95;;;2.63;;
39846;SDS011;25517;52.422;10.782;2022-07-04T01:01:10;3.42;;;2.45;;
39846;SDS011;25517;52.422;10.782;2022-07-04T01:03:35;2.22;;;2.03;;
39846;SDS011;25517;52.422;10.782;2022-07-04T01:06:01;2.53;;;2.00;;
39846;SDS011;25517;52.422;10.782;2022-07-04T01:08:27;3.80;;;2.28;;
39846;SDS011;25517;52.422;10.782;2022-07-04T01:10:53;3.45;;;2.60;;
39846;SDS011;25517;52.422;10.782;2022-07-04T01:13:22;1.73;;;1.60;;
39846;SDS011;25517;52.422;10.782;2022-07-04T01:15:49;4.32;;;1.95;;
39846;SDS011;25517;52.422;10.782;2022-07-04T01:18:16;5.30;;;2.22;;
39846;SDS011;25517;52.422;10.782;2022-07-04T01:20:42;2.72;;;1.80;;
39846;SDS011;25517;52.422;10.782;2022-07-04T01:23:07;3.25;;;1.80;;
39846;SDS011;25517;52.422;10.782;2022-07-04T01:25:33;2.25;;;1.95;;
39846;SDS011;25517;52.422;10.782;2022-07-04T01:27:59;2.10;;;1.80;;
39846;SDS011;25517;52.422;10.782;2022-07-04T01:30:25;3.30;;;2.38;;
39846;SDS011;25517;52.422;10.782;2022-07-04T01:32:52;3.25;;;2.42;;
39846;SDS011;25517;52.422;10.782;2022-07-04T01:35:18;4.97;;;1.85;;
39846;SDS011;25517;52.422;10.782;2022-07-04T01:37:44;6.03;;;2.00;;
39846;SDS011;25517;52.422;10.782;2022-07-04T01:40:09;5.35;;;1.98;;
39846;SDS011;25517;52.422;10.782;2022-07-04T01:42:37;3.10;;;2.00;;
39846;SDS011;25517;52.422;10.782;2022-07-04T01:45:03;2.80;;;1.92;;
39846;SDS011;25517;52.422;10.782;2022-07-04T01:47:29;6.53;;;2.50;;
39846;SDS011;25517;52.422;10.782;2022-07-04T01:49:55;2.30;;;1.90;;
39846;SDS011;25517;52.422;10.782;2022-07-04T01:52:20;3.53;;;2.28;;
39846;SDS011;25517;52.422;10.782;2022-07-04T01:54:45;2.10;;;1.70;;
39846;SDS011;25517;52.422;10.782;2022-07-04T01:57:11;2.60;;;2.10;;
39846;SDS011;25517;52.422;10.782;2022-07-04T01:59:37;4.78;;;1.95;;
39846;SDS011;25517;52.422;10.782;2022-07-04T02:02:22;4.20;;;2.65;;
39846;SDS011;25517;52.422;10.782;2022-07-04T02:04:48;3.28;;;2.08;;
39846;SDS011;25517;52.422;10.782;2022-07-04T02:07:14;3.42;;;1.67;;
39846;SDS011;25517;52.422;10.782;2022-07-04T02:09:39;2.50;;;1.83;;
39846;SDS011;25517;52.422;10.782;2022-07-04T02:12:05;3.13;;;2.13;;
39846;SDS011;25517;52.422;10.782;2022-07-04T02:14:49;3.10;;;1.88;;
39846;SDS011;25517;52.422;10.782;2022-07-04T02:17:15;2.58;;;2.10;;
39846;SDS011;25517;52.422;10.782;2022-07-04T02:19:40;2.20;;;1.80;;
39846;SDS011;25517;52.422;10.782;2022-07-04T02:22:06;1.98;;;1.77;;
39846;SDS011;25517;52.422;10.782;2022-07-04T02:24:31;3.90;;;1.92;;
39846;SDS011;25517;52.422;10.782;2022-07-04T02:26:57;1.98;;;1.77;;
39846;SDS011;25517;52.422;10.782;2022-07-04T02:29:22;3.88;;;2.17;;
39846;SDS011;25517;52.422;10.782;2022-07-04T02:31:48;2.53;;;1.90;;
39846;SDS011;25517;52.422;10.782;2022-07-04T02:34:13;1.70;;;1.58;;
39846;SDS011;25517;52.422;10.782;2022-07-04T02:36:39;2.55;;;1.67;;
39846;SDS011;25517;52.422;10.782;2022-07-04T02:39:04;5.80;;;2.08;;
39846;SDS011;25517;52.422;10.782;2022-07-04T02:41:31;3.65;;;2.10;;
39846;SDS011;25517;52.422;10.782;2022-07-04T02:43:57;2.72;;;2.05;;
39846;SDS011;25517;52.422;10.782;2022-07-04T02:46:23;3.53;;;1.73;;
39846;SDS011;25517;52.422;10.782;2022-07-04T02:48:49;3.03;;;1.65;;
39846;SDS011;25517;52.422;10.782;2022-07-04T02:51:14;2.28;;;2.00;;
39846;SDS011;25517;52.422;10.782;2022-07-04T02:53:40;3.15;;;1.80;;
39846;SDS011;25517;52.422;10.782;2022-07-04T02:56:06;4.53;;;1.55;;
39846;SDS011;25517;52.422;10.782;2022-07-04T02:58:32;6.22;;;1.92;;
39846;SDS011;25517;52.422;10.782;2022-07-04T03:00:57;4.60;;;1.90;;
39846;SDS011;25517;52.422;10.782;2022-07-04T03:03:23;2.63;;;1.85;;
39846;SDS011;25517;52.422;10.782;2022-07-04T03:05:49;8.52;;;2.40;;
39846;SDS011;25517;52.422;10.782;2022-07-04T03:08:14;3.65;;;1.80;;
39846;SDS011;25517;52.422;10.782;2022-07-04T03:10:40;3.25;;;1.80;;
39846;SDS011;25517;52.422;10.782;2022-07-04T03:13:05;2.33;;;1.95;;
39846;SDS011;25517;52.422;10.782;2022-07-04T03:15:31;5.22;;;2.50;;
39846;SDS011;25517;52.422;10.782;2022-07-04T03:17:56;2.55;;;2.13;;
39846;SDS011;25517;52.422;10.782;2022-07-04T03:20:22;5.20;;;2.60;;
39846;SDS011;25517;52.422;10.782;2022-07-04T03:22:47;4.18;;;2.10;;
39846;SDS011;25517;52.422;10.782;2022-07-04T03:25:13;5.40;;;2.75;;
39846;SDS011;25517;52.422;10.782;2022-07-04T03:27:39;2.83;;;2.10;;
39846;SDS011;25517;52.422;10.782;2022-07-04T03:30:04;4.95;;;2.70;;
39846;SDS011;25517;52.422;10.782;2022-07-04T03:32:30;3.38;;;2.03;;
39846;SDS011;25517;52.422;10.782;2022-07-04T03:34:56;4.18;;;2.50;;
39846;SDS011;25517;52.422;10.782;2022-07-04T03:37:21;3.80;;;2.08;;
39846;SDS011;25517;52.422;10.782;2022-07-04T03:39:47;3.35;;;2.08;;
39846;SDS011;25517;52.422;10.782;2022-07-04T03:42:12;4.85;;;2.30;;
39846;SDS011;25517;52.422;10.782;2022-07-04T03:44:38;4.20;;;2.42;;
39846;SDS011;25517;52.422;10.782;2022-07-04T03:47:03;4.03;;;1.95;;
39846;SDS011;25517;52.422;10.782;2022-07-04T03:49:29;4.30;;;2.70;;
39846;SDS011;25517;52.422;10.782;2022-07-04T03:51:54;5.15;;;2.90;;
39846;SDS011;25517;52.422;10.782;2022-07-04T03:54:20;2.53;;;2.30;;
39846;SDS011;25517;52.422;10.782;2022-07-04T03:56:45;2.65;;;2.30;;
39846;SDS011;25517;52.422;10.782;2022-07-04T03:59:11;3.45;;;2.47;;
39846;SDS011;25517;52.422;10.782;2022-07-04T04:01:36;2.92;;;2.47;;
39846;SDS011;25517;52.422;10.782;2022-07-04T04:04:02;3.22;;;2.30;;
39846;SDS011;25517;52.422;10.782;2022-07-04T04:06:46;4.30;;;2.45;;
39846;SDS011;25517;52.422;10.782;2022-07-04T04:09:12;5.47;;;2.75;;
39846;SDS011;25517;52.422;10.782;2022-07-04T04:11:41;4.78;;;2.42;;
39846;SDS011;25517;52.422;10.782;2022-07-04T04:14:07;4.05;;;2.30;;
39846;SDS011;25517;52.422;10.782;2022-07-04T04:16:33;7.00;;;3.22;;
39846;SDS011;25517;52.422;10.782;2022-07-04T04:18:59;6.32;;;3.10;;
39846;SDS011;25517;52.422;10.782;2022-07-04T04:21:25;4.10;;;2.75;;
39846;SDS011;25517;52.422;10.782;2022-07-04T04:23:51;4.10;;;2.45;;
39846;SDS011;25517;52.422;10.782;2022-07-04T04:26:16;5.38;;;2.60;;
39846;SDS011;25517;52.422;10.782;2022-07-04T04:28:42;3.13;;;2.30;;
39846;SDS011;25517;52.422;10.782;2022-07-04T04:31:08;5.10;;;2.55;;
39846;SDS011;25517;52.422;10.782;2022-07-04T04:33:34;3.22;;;2.25;;
39846;SDS011;25517;52.422;10.782;2022-07-04T04:36:00;5.80;;;2.58;;
39846;SDS011;25517;52.422;10.782;2022-07-04T04:38:25;3.95;;;2.22;;
39846;SDS011;25517;52.422;10.782;2022-07-04T04:40:51;4.28;;;2.40;;
39846;SDS011;25517;52.422;10.782;2022-07-04T04:43:16;6.10;;;3.03;;
39846;SDS011;25517;52.422;10.782;2022-07-04T04:45:42;4.25;;;2.45;;
39846;SDS011;25517;52.422;10.782;2022-07-04T04:48:07;5.38;;;2.90;;
39846;SDS011;25517;52.422;10.782;2022-07-04T04:50:33;6.22;;;2.97;;
39846;SDS011;25517;52.422;10.782;2022-07-04T04:52:59;7.70;;;3.03;;
39846;SDS011;25517;52.422;10.782;2022-07-04T04:55:25;3.88;;;2.92;;
39846;SDS011;25517;52.422;10.782;2022-07-04T04:57:51;5.82;;;2.70;;
39846;SDS011;25517;52.422;10.782;2022-07-04T05:00:17;4.43;;;2.90;;
39846;SDS011;25517;52.422;10.782;2022-07-04T05:02:42;3.33;;;2.85;;
39846;SDS011;25517;52.422;10.782;2022-07-04T05:05:08;5.25;;;2.95;;
39846;SDS011;25517;52.422;10.782;2022-07-04T05:07:34;3.35;;;2.35;;
39846;SDS011;25517;52.422;10.782;2022-07-04T05:09:59;4.30;;;2.88;;
39846;SDS011;25517;52.422;10.782;2022-07-04T05:12:25;6.43;;;3.30;;
39846;SDS011;25517;52.422;10.782;2022-07-04T05:14:51;4.25;;;2.45;;
39846;SDS011;25517;52.422;10.782;2022-07-04T05:17:17;5.35;;;3.10;;
39846;SDS011;25517;52.422;10.782;2022-07-04T05:19:43;8.82;;;4.05;;
39846;SDS011;25517;52.422;10.782;2022-07-04T05:22:08;5.30;;;3.25;;
39846;SDS011;25517;52.422;10.782;2022-07-04T05:24:35;7.30;;;3.08;;
39846;SDS011;25517;52.422;10.782;2022-07-04T05:27:04;4.57;;;3.03;;
39846;SDS011;25517;52.422;10.782;2022-07-04T05:29:30;7.10;;;3.33;;
39846;SDS011;25517;52.422;10.782;2022-07-04T05:31:56;7.07;;;3.60;;
39846;SDS011;25517;52.422;10.782;2022-07-04T05:34:22;5.28;;;3.42;;
39846;SDS011;25517;52.422;10.782;2022-07-04T05:36:47;6.13;;;3.38;;
39846;SDS011;25517;52.422;10.782;2022-07-04T05:39:13;6.72;;;3.38;;
39846;SDS011;25517;52.422;10.782;2022-07-04T05:41:38;7.38;;;3.67;;
39846;SDS011;25517;52.422;10.782;2022-07-04T05:44:04;7.53;;;3.47;;
39846;SDS011;25517;52.422;10.782;2022-07-04T05:46:30;8.55;;;3.75;;
39846;SDS011;25517;52.422;10.782;2022-07-04T05:48:55;9.60;;;3.78;;
39846;SDS011;25517;52.422;10.782;2022-07-04T05:51:21;5.18;;;3.00;;
39846;SDS011;25517;52.422;10.782;2022-07-04T05:53:46;6.32;;;3.10;;
39846;SDS011;25517;52.422;10.782;2022-07-04T05:56:12;7.72;;;3.33;;
39846;SDS011;25517;52.422;10.782;2022-07-04T05:58:38;4.40;;;3.50;;
39846;SDS011;25517;52.422;10.782;2022-07-04T06:01:03;5.90;;;2.88;;
39846;SDS011;25517;52.422;10.782;2022-07-04T06:03:29;6.35;;;3.15;;
39846;SDS011;25517;52.422;10.782;2022-07-04T06:05:54;9.38;;;3.20;;
39846;SDS011;25517;52.422;10.782;2022-07-04T06:08:20;5.80;;;3.15;;
39846;SDS011;25517;52.422;10.782;2022-07-04T06:10:46;4.03;;;2.22;;
39846;SDS011;25517;52.422;10.782;2022-07-04T06:13:12;4.55;;;2.22;;
39846;SDS011;25517;52.422;10.782;2022-07-04T06:15:38;3.08;;;2.10;;
39846;SDS011;25517;52.422;10.782;2022-07-04T06:18:04;4.90;;;1.90;;
39846;SDS011;25517;52.422;10.782;2022-07-04T06:20:29;3.75;;;1.92;;
39846;SDS011;25517;52.422;10.782;2022-07-04T06:22:55;5.13;;;1.60;;
39846;SDS011;25517;52.422;10.782;2022-07-04T06:25:21;5.18;;;1.92;;
39846;SDS011;25517;52.422;10.782;2022-07-04T06:27:48;4.65;;;1.80;;
39846;SDS011;25517;52.422;10.782;2022-07-04T06:30:15;3.72;;;1.40;;
39846;SDS011;25517;52.422;10.782;2022-07-04T06:32:48;5.15;;;1.95;;
39846;SDS011;25517;52.422;10.782;2022-07-04T06:35:22;7.45;;;1.65;;
39846;SDS011;25517;52.422;10.782;2022-07-04T06:38:08;4.47;;;1.70;;
39846;SDS011;25517;52.422;10.782;2022-07-04T06:40:35;2.97;;;1.33;;
39846;SDS011;25517;52.422;10.782;2022-07-04T06:43:01;4.43;;;1.77;;
39846;SDS011;25517;52.422;10.782;2022-07-04T06:45:28;4.35;;;1.48;;
39846;SDS011;25517;52.422;10.782;2022-07-04T06:47:54;4.45;;;2.05;;
39846;SDS011;25517;52.422;10.782;2022-07-04T06:50:19;5.85;;;1.77;;
39846;SDS011;25517;52.422;10.782;2022-07-04T06:52:45;4.40;;;1.63;;
39846;SDS011;25517;52.422;10.782;2022-07-04T06:55:10;3.67;;;1.33;;
39846;SDS011;25517;52.422;10.782;2022-07-04T06:57:36;3.63;;;1.60;;
39846;SDS011;25517;52.422;10.782;2022-07-04T07:00:04;3.95;;;1.60;;
39846;SDS011;25517;52.422;10.782;2022-07-04T07:02:30;2.15;;;1.30;;
39846;SDS011;25517;52.422;10.782;2022-07-04T07:04:56;3.60;;;1.70;;
39846;SDS011;25517;52.422;10.782;2022-07-04T07:07:22;3.50;;;1.23;;
39846;SDS011;25517;52.422;10.782;2022-07-04T07:09:49;2.05;;;1.30;;
39846;SDS011;25517;52.422;10.782;2022-07-04T07:12:15;6.88;;;1.17;;
39846;SDS011;25517;52.422;10.782;2022-07-04T07:14:41;4.22;;;1.33;;
39846;SDS011;25517;52.422;10.782;2022-07-04T07:17:06;4.30;;;1.33;;
39846;SDS011;25517;52.422;10.782;2022-07-04T07:19:32;4.72;;;1.48;;
39846;SDS011;25517;52.422;10.782;2022-07-04T07:21:58;1.73;;;1.23;;
39846;SDS011;25517;52.422;10.782;2022-07-04T07:24:24;3.97;;;1.40;;
39846;SDS011;25517;52.422;10.782;2022-07-04T07:26:50;5.00;;;1.60;;
39846;SDS011;25517;52.422;10.782;2022-07-04T07:29:16;4.15;;;1.20;;
39846;SDS011;25517;52.422;10.782;2022-07-04T07:31:42;3.58;;;1.33;;
39846;SDS011;25517;52.422;10.782;2022-07-04T07:34:07;2.85;;;1.20;;
39846;SDS011;25517;52.422;10.782;2022-07-04T07:36:33;3.03;;;1.55;;
39846;SDS011;25517;52.422;10.782;2022-07-04T07:38:59;1.95;;;1.50;;
39846;SDS011;25517;52.422;10.782;2022-07-04T07:41:25;4.38;;;1.63;;
39846;SDS011;25517;52.422;10.782;2022-07-04T07:43:51;3.50;;;1.45;;
39846;SDS011;25517;52.422;10.782;2022-07-04T07:46:16;6.40;;;1.52;;
39846;SDS011;25517;52.422;10.782;2022-07-04T07:48:42;3.00;;;1.50;;
39846;SDS011;25517;52.422;10.782;2022-07-04T07:51:09;1.80;;;1.33;;
39846;SDS011;25517;52.422;10.782;2022-07-04T07:53:35;3.28;;;1.40;;
39846;SDS011;25517;52.422;10.782;2022-07-04T07:56:00;2.33;;;1.48;;
39846;SDS011;25517;52.422;10.782;2022-07-04T07:58:27;1.83;;;1.10;;
39846;SDS011;25517;52.422;10.782;2022-07-04T08:00:54;2.20;;;1.40;;
39846;SDS011;25517;52.422;10.782;2022-07-04T08:03:20;3.05;;;1.33;;
39846;SDS011;25517;52.422;10.782;2022-07-04T08:06:03;3.05;;;1.65;;
39846;SDS011;25517;52.422;10.782;2022-07-04T08:08:29;3.47;;;1.52;;
39846;SDS011;25517;52.422;10.782;2022-07-04T08:10:54;3.58;;;1.65;;
39846;SDS011;25517;52.422;10.782;2022-07-04T08:13:20;2.75;;;1.20;;
39846;SDS011;25517;52.422;10.782;2022-07-04T08:15:45;2.55;;;1.17;;
39846;SDS011;25517;52.422;10.782;2022-07-04T08:18:11;1.15;;;1.02;;
39846;SDS011;25517;52.422;10.782;2022-07-04T08:20:37;4.82;;;1.70;;
39846;SDS011;25517;52.422;10.782;2022-07-04T08:23:02;5.05;;;1.23;;
39846;SDS011;25517;52.422;10.782;2022-07-04T08:25:28;5.10;;;1.20;;
39846;SDS011;25517;52.422;10.782;2022-07-04T08:27:54;2.92;;;1.08;;
39846;SDS011;25517;52.422;10.782;2022-07-04T08:30:19;3.08;;;1.38;;
39846;SDS011;25517;52.422;10.782;2022-07-04T08:32:45;4.70;;;1.42;;
39846;SDS011;25517;52.422;10.782;2022-07-04T08:35:11;3.00;;;1.20;;
39846;SDS011;25517;52.422;10.782;2022-07-04T08:37:36;2.30;;;1.23;;
39846;SDS011;25517;52.422;10.782;2022-07-04T08:40:03;3.92;;;1.50;;
39846;SDS011;25517;52.422;10.782;2022-07-04T08:42:34;3.27;;;1.17;;
39846;SDS011;25517;52.422;10.782;2022-07-04T08:45:01;3.60;;;1.10;;
39846;SDS011;25517;52.422;10.782;2022-07-04T08:47:27;4.30;;;1.15;;
39846;SDS011;25517;52.422;10.782;2022-07-04T08:52:50;2.28;;;1.05;;
39846;SDS011;25517;52.422;10.782;2022-07-04T08:55:20;4.53;;;1.02;;
39846;SDS011;25517;52.422;10.782;2022-07-04T08:58:05;2.70;;;1.08;;
39846;SDS011;25517;52.422;10.782;2022-07-04T09:00:50;1.70;;;1.13;;
39846;SDS011;25517;52.422;10.782;2022-07-04T09:03:53;2.67;;;0.93;;
39846;SDS011;25517;52.422;10.782;2022-07-04T09:06:20;2.30;;;1.20;;
39846;SDS011;25517;52.422;10.782;2022-07-04T09:08:47;3.78;;;1.00;;
39846;SDS011;25517;52.422;10.782;2022-07-04T09:11:13;4.35;;;1.08;;
39846;SDS011;25517;52.422;10.782;2022-07-04T09:13:38;3.70;;;1.38;;
39846;SDS011;25517;52.422;10.782;2022-07-04T09:16:04;2.17;;;1.08;;
39846;SDS011;25517;52.422;10.782;2022-07-04T09:18:31;0.88;;;0.70;;
39846;SDS011;25517;52.422;10.782;2022-07-04T09:20:59;5.97;;;1.00;;
39846;SDS011;25517;52.422;10.782;2022-07-04T09:23:29;1.02;;;0.70;;
39846;SDS011;25517;52.422;10.782;2022-07-04T09:28:42;2.25;;;0.70;;
39846;SDS011;25517;52.422;10.782;2022-07-04T09:31:19;2.08;;;0.90;;
39846;SDS011;25517;52.422;10.782;2022-07-04T09:36:25;2.35;;;1.00;;
39846;SDS011;25517;52.422;10.782;2022-07-04T09:44:28;3.72;;;0.90;;
39846;SDS011;25517;52.422;10.782;2022-07-04T09:47:21;1.40;;;1.15;;
39846;SDS011;25517;52.422;10.782;2022-07-04T09:52:45;1.60;;;0.93;;
39846;SDS011;25517;52.422;10.782;2022-07-04T09:55:31;2.72;;;1.00;;
39846;SDS011;25517;52.422;10.782;2022-07-04T09:57:59;2.13;;;0.77;;
39846;SDS011;25517;52.422;10.782;2022-07-04T10:00:29;2.70;;;0.85;;
39846;SDS011;25517;52.422;10.782;2022-07-04T10:03:17;1.77;;;0.95;;
39846;SDS011;25517;52.422;10.782;2022-07-04T10:05:46;3.00;;;0.80;;
39846;SDS011;25517;52.422;10.782;2022-07-04T10:08:25;1.48;;;0.70;;
39846;SDS011;25517;52.422;10.782;2022-07-04T10:10:51;2.50;;;0.85;;
39846;SDS011;25517;52.422;10.782;2022-07-04T10:13:21;1.45;;;0.82;;
39846;SDS011;25517;52.422;10.782;2022-07-04T10:15:47;1.52;;;0.90;;
39846;SDS011;25517;52.422;10.782;2022-07-04T10:18:13;0.85;;;0.68;;
39846;SDS011;25517;52.422;10.782;2022-07-04T10:20:42;2.33;;;0.80;;
39846;SDS011;25517;52.422;10.782;2022-07-04T10:23:07;1.85;;;0.82;;
39846;SDS011;25517;52.422;10.782;2022-07-04T10:25:33;3.72;;;0.77;;
39846;SDS011;25517;52.422;10.782;2022-07-04T10:27:59;4.50;;;0.77;;
39846;SDS011;25517;52.422;10.782;2022-07-04T10:30:26;3.47;;;1.42;;
39846;SDS011;25517;52.422;10.782;2022-07-04T10:32:55;2.42;;;1.00;;
39846;SDS011;25517;52.422;10.782;2022-07-04T10:35:45;3.90;;;0.80;;
39846;SDS011;25517;52.422;10.782;2022-07-04T10:38:14;2.13;;;1.00;;
39846;SDS011;25517;52.422;10.782;2022-07-04T10:48:35;2.90;;;0.80;;
39846;SDS011;25517;52.422;10.782;2022-07-04T10:51:04;2.78;;;0.93;;
39846;SDS011;25517;52.422;10.782;2022-07-04T10:53:31;2.13;;;1.08;;
39846;SDS011;25517;52.422;10.782;2022-07-04T10:57:07;9.68;;;7.95;;
39846;SDS011;25517;52.422;10.782;2022-07-04T10:58:54;1.27;;;0.80;;
39846;SDS011;25517;52.422;10.782;2022-07-04T11:01:20;3.40;;;1.00;;
39846;SDS011;25517;52.422;10.782;2022-07-04T11:09:22;3.10;;;0.68;;
39846;SDS011;25517;52.422;10.782;2022-07-04T11:12:04;1.30;;;0.90;;
39846;SDS011;25517;52.422;10.782;2022-07-04T11:19:36;2.55;;;0.90;;
39846;SDS011;25517;52.422;10.782;2022-07-04T11:22:03;1.85;;;0.73;;
39846;SDS011;25517;52.422;10.782;2022-07-04T11:24:49;4.55;;;1.02;;
39846;SDS011;25517;52.422;10.782;2022-07-04T11:27:14;1.25;;;0.80;;
39846;SDS011;25517;52.422;10.782;2022-07-04T11:29:49;3.42;;;1.00;;
39846;SDS011;25517;52.422;10.782;2022-07-04T11:32:18;1.67;;;0.60;;
39846;SDS011;25517;52.422;10.782;2022-07-04T11:34:44;1.63;;;0.90;;
39846;SDS011;25517;52.422;10.782;2022-07-04T11:37:11;0.70;;;0.70;;
39846;SDS011;25517;52.422;10.782;2022-07-04T11:39:37;4.90;;;0.70;;
39846;SDS011;25517;52.422;10.782;2022-07-04T11:42:02;3.88;;;1.38;;
39846;SDS011;25517;52.422;10.782;2022-07-04T11:44:46;2.20;;;0.80;;
39846;SDS011;25517;52.422;10.782;2022-07-04T11:47:34;2.83;;;0.70;;
39846;SDS011;25517;52.422;10.782;2022-07-04T11:50:00;3.40;;;0.90;;
39846;SDS011;25517;52.422;10.782;2022-07-04T11:52:37;1.35;;;0.70;;
39846;SDS011;25517;52.422;10.782;2022-07-04T11:55:09;2.60;;;0.80;;
39846;SDS011;25517;52.422;10.782;2022-07-04T11:57:37;0.93;;;0.70;;
39846;SDS011;25517;52.422;10.782;2022-07-04T12:00:13;3.03;;;0.80;;
39846;SDS011;25517;52.422;10.782;2022-07-04T12:02:40;0.93;;;0.50;;
39846;SDS011;25517;52.422;10.782;2022-07-04T12:05:11;1.45;;;0.60;;
39846;SDS011;25517;52.422;10.782;2022-07-04T12:07:38;0.82;;;0.75;;
39846;SDS011;25517;52.422;10.782;2022-07-04T12:10:23;1.98;;;0.63;;
39846;SDS011;25517;52.422;10.782;2022-07-04T12:12:50;1.30;;;0.70;;
39846;SDS011;25517;52.422;10.782;2022-07-04T12:15:18;1.60;;;0.88;;
39846;SDS011;25517;52.422;10.782;2022-07-04T12:17:44;0.75;;;0.63;;
39846;SDS011;25517;52.422;10.782;2022-07-04T12:20:14;2.30;;;1.30;;
39846;SDS011;25517;52.422;10.782;2022-07-04T12:22:57;1.10;;;0.68;;
39846;SDS011;25517;52.422;10.782;2022-07-04T12:25:34;3.47;;;0.80;;
39846;SDS011;25517;52.422;10.782;2022-07-04T12:30:51;0.77;;;0.60;;
39846;SDS011;25517;52.422;10.782;2022-07-04T12:33:20;2.70;;;0.70;;
39846;SDS011;25517;52.422;10.782;2022-07-04T12:38:22;2.40;;;0.70;;
39846;SDS011;25517;52.422;10.782;2022-07-04T12:46:09;2.40;;;0.73;;
39846;SDS011;25517;52.422;10.782;2022-07-04T12:48:37;2.28;;;1.20;;
39846;SDS011;25517;52.422;10.782;2022-07-04T12:53:36;2.13;;;0.50;;
39846;SDS011;25517;52.422;10.782;2022-07-04T12:56:03;0.70;;;0.60;;
39846;SDS011;25517;52.422;10.782;2022-07-04T12:58:28;2.33;;;0.73;;
39846;SDS011;25517;52.422;10.782;2022-07-04T13:00:54;3.50;;;0.60;;
39846;SDS011;25517;52.422;10.782;2022-07-04T13:03:20;3.92;;;0.77;;
39846;SDS011;25517;52.422;10.782;2022-07-04T13:05:45;2.75;;;1.35;;
39846;SDS011;25517;52.422;10.782;2022-07-04T13:08:11;0.52;;;0.52;;
39846;SDS011;25517;52.422;10.782;2022-07-04T13:10:37;3.28;;;0.60;;
39846;SDS011;25517;52.422;10.782;2022-07-04T13:13:02;2.90;;;0.88;;
39846;SDS011;25517;52.422;10.782;2022-07-04T13:15:28;1.23;;;0.85;;
39846;SDS011;25517;52.422;10.782;2022-07-04T13:17:54;2.13;;;0.55;;
39846;SDS011;25517;52.422;10.782;2022-07-04T13:20:20;1.67;;;0.90;;
39846;SDS011;25517;52.422;10.782;2022-07-04T13:22:45;1.02;;;0.60;;
39846;SDS011;25517;52.422;10.782;2022-07-04T13:25:11;1.33;;;1.08;;
39846;SDS011;25517;52.422;10.782;2022-07-04T13:27:37;2.60;;;1.00;;
39846;SDS011;25517;52.422;10.782;2022-07-04T13:30:02;1.92;;;0.80;;
39846;SDS011;25517;52.422;10.782;2022-07-04T13:32:28;2.90;;;0.77;;
39846;SDS011;25517;52.422;10.782;2022-07-04T13:34:54;1.15;;;0.82;;
39846;SDS011;25517;52.422;10.782;2022-07-04T13:37:20;1.58;;;0.50;;
39846;SDS011;25517;52.422;10.782;2022-07-04T13:39:46;2.30;;;0.60;;
39846;SDS011;25517;52.422;10.782;2022-07-04T13:42:11;3.15;;;1.13;;
39846;SDS011;25517;52.422;10.782;2022-07-04T13:44:37;0.77;;;0.50;;
39846;SDS011;25517;52.422;10.782;2022-07-04T13:47:03;2.88;;;0.80;;
39846;SDS011;25517;52.422;10.782;2022-07-04T13:49:28;2.95;;;0.88;;
39846;SDS011;25517;52.422;10.782;2022-07-04T13:51:54;1.63;;;0.70;;
39846;SDS011;25517;52.422;10.782;2022-07-04T13:54:19;1.75;;;0.93;;
39846;SDS011;25517;52.422;10.782;2022-07-04T13:56:45;0.45;;;0.45;;
39846;SDS011;25517;52.422;10.782;2022-07-04T13:59:11;0.95;;;0.73;;
39846;SDS011;25517;52.422;10.782;2022-07-04T14:01:36;2.55;;;0.80;;
39846;SDS011;25517;52.422;10.782;2022-07-04T14:04:02;3.28;;;1.00;;
39846;SDS011;25517;52.422;10.782;2022-07-04T14:06:28;2.47;;;0.98;;
39846;SDS011;25517;52.422;10.782;2022-07-04T14:08:54;1.60;;;0.85;;
39846;SDS011;25517;52.422;10.782;2022-07-04T14:11:20;1.75;;;1.00;;
39846;SDS011;25517;52.422;10.782;2022-07-04T14:13:45;0.95;;;0.65;;
39846;SDS011;25517;52.422;10.782;2022-07-04T14:16:11;1.30;;;0.60;;
39846;SDS011;25517;52.422;10.782;2022-07-04T14:18:36;2.15;;;0.63;;
39846;SDS011;25517;52.422;10.782;2022-07-04T14:21:02;1.30;;;0.70;;
39846;SDS011;25517;52.422;10.782;2022-07-04T14:23:27;1.88;;;0.70;;
39846;SDS011;25517;52.422;10.782;2022-07-04T14:26:05;8.40;;;7.55;;
39846;SDS011;25517;52.422;10.782;2022-07-04T14:28:31;2.15;;;0.90;;
39846;SDS011;25517;52.422;10.782;2022-07-04T14:30:57;2.70;;;1.30;;
39846;SDS011;25517;52.422;10.782;2022-07-04T14:33:23;1.25;;;0.90;;
39846;SDS011;25517;52.422;10.782;2022-07-04T14:35:49;1.08;;;0.88;;
39846;SDS011;25517;52.422;10.782;2022-07-04T14:38:15;1.63;;;0.88;;
39846;SDS011;25517;52.422;10.782;2022-07-04T14:40:41;1.98;;;0.88;;
39846;SDS011;25517;52.422;10.782;2022-07-04T14:43:10;1.63;;;0.70;;
39846;SDS011;25517;52.422;10.782;2022-07-04T14:45:36;1.35;;;0.75;;
39846;SDS011;25517;52.422;10.782;2022-07-04T14:48:01;1.65;;;0.75;;
39846;SDS011;25517;52.422;10.782;2022-07-04T14:50:27;1.38;;;0.80;;
39846;SDS011;25517;52.422;10.782;2022-07-04T14:52:52;3.03;;;0.82;;
39846;SDS011;25517;52.422;10.782;2022-07-04T14:55:18;1.73;;;0.90;;
39846;SDS011;25517;52.422;10.782;2022-07-04T14:57:44;1.02;;;0.50;;
39846;SDS011;25517;52.422;10.782;2022-07-04T15:00:09;2.33;;;1.05;;
39846;SDS011;25517;52.422;10.782;2022-07-04T15:02:35;1.90;;;0.85;;
39846;SDS011;25517;52.422;10.782;2022-07-04T15:05:01;1.35;;;0.82;;
39846;SDS011;25517;52.422;10.782;2022-07-04T15:07:27;3.22;;;1.00;;
39846;SDS011;25517;52.422;10.782;2022-07-04T15:09:53;1.13;;;0.85;;
39846;SDS011;25517;52.422;10.782;2022-07-04T15:12:19;2.50;;;0.75;;
39846;SDS011;25517;52.422;10.782;2022-07-04T15:14:45;1.75;;;0.85;;
39846;SDS011;25517;52.422;10.782;2022-07-04T15:17:10;0.95;;;0.70;;
39846;SDS011;25517;52.422;10.782;2022-07-04T15:19:36;2.38;;;0.70;;
39846;SDS011;25517;52.422;10.782;2022-07-04T15:22:21;2.03;;;1.10;;